Etzikom, Canada
Current Conditions -  °F | °C
As of 2:00 AM on Monday 22 Dec 2014 (Local Time) from CYXH Reporting Station
Overcast Overcast  
Wind Chill: 25°   Ceiling: 11000
Heat Index: 34°   Visibility: 9mi
Dew Point: 30°   Wind: 13mph
Humidity: 87%   Direction: 280°W
Pressure: 29.67"   Gusts: NA
Location:  49.48°N, 111.1°W
Report Text: CYXH 220900Z AUTO 28011KT 9SM BKN110 OVC130 01/M01 A2967 RMK SLP070
Loading
Personal Weather Stations






























Interactive Weather Map New forecast layout! Learn more

10-Day Weather Forecast

Advertisements
Track Severe Weather on mobile